Terminal Aerodrome Forecast
Issued by NWS Denver/Boulder, CO

Home | Current Version | Previous Version | Text Only | Print | Product List | Glossary On
Versions: 1 2 3 4 5 6 7 8 9 10 11 12 13 14 15 16 17 18 19 20 21 22 23 24 25 26 27 28 29 30 31 32 33 34 35 36 37 38 39 40 41 42 43 44 45 46 47 48 49 50
000
FTUS45 KBOU 211907 AAA
TAFDEN
TAF AMD
KDEN 211907Z 2119/2224 17006KT P6SM SCT070 BKN120
     FM212100 15013G20KT P6SM VCSH SCT050 BKN080
      TEMPO 2123/2203 -SHRA BKN050
     FM220400 15013KT P6SM SCT050 BKN080
     FM220800 20012G20KT P6SM SCT080 BKN140
     FM221500 VRB05KT P6SM SCT060 BKN140
     FM221900 03007KT P6SM VCTS SCT070CB BKN100=

USA.gov is the U.S. government's official web portal to all federal, state and local government web resources and services.